Shoreham, United Kingdom

11:09 AM GMT on January 27, 2015 (GMT +0000)
Shoreham-By-Sea | Change Station
CLOSE
Current Station
Personal Weather Station
Location: Shoreham-by-Sea,
Elevation: 10 ft
Nearby Weather Stations

Elev 10 ft 50.84 °N, 0.27 °W | Updated 20 seconds ago

Clear
Clear
46.4 °F
Feels Like 46 °F
N
0.0
Wind Variable Wind from North
Gusts 0.0 mph

Today
High -- | Low -- °F
--% Chance of Precip.
Yesterday
High -- | Low -- °F
Precip. -- in
7:44 AM 4:43 PM
First Quarter, 53% visible
Pressure 30.36 in
Visibility -9999.0 miles
Clouds
Windchill 46 °F
Dew Point 37 °F
Humidity 69%
Rainfall 0.00 in
Snow Depth Not available.
UV Not available.
Pollen Not available.
Air Quality Not available.
Flu Activity Not available.
METAR EGKA 271050Z 31009KT CAVOK 07/03 Q1028

More Conditions Fewer Conditions

Pressure 30.36 in
Visibility -9999.0 miles
Clouds
Windchill 46 °F
Dew Point 37 °F
Humidity 69%
Rainfall 0.00 in
Snow Depth Not available.
UV Not available.
Pollen Not available.
Air Quality Not available.
Flu Activity Not available.
METAR EGKA 271050Z 31009KT CAVOK 07/03 Q1028

More Conditions Fewer Conditions

10-Day Weather Forecast

Almanac

Astronomy

Jan. 27, 2015 Rise Set
Actual Time
Civil Twilight
Nautical Twilight
Astronomical Twilight
Moon
Length of Visible Light
Length of Day
Tomorrow will be .
, % of the Moon is Illuminated

Today's Extremes

Country Highs Country Lows

Community

WunderPhotos

Upload Photos

1,790,564 photos uploaded!

WunderBlogs® & News

Nearby

Air Quality

  Air Quality AQ Index Pollutant
Not available.

Snow Depth

Station Depth Elevation

Earthquake Activity

City Distance Mag. Time & Date
Minimum magnitude displayed is 2.5.

Coastal Water Temperatures

Place Temperature

Nearby Weather Stations